createdAt,value
2023-06-01T00:00:57.158Z,3.55
2023-06-01T00:03:27.598Z,3.20
2023-06-01T00:05:56.392Z,3.17
2023-06-01T00:08:24.870Z,3.42
2023-06-01T00:10:54.193Z,2.65
2023-06-01T00:13:24.031Z,2.72
2023-06-01T00:15:52.940Z,3.10
2023-06-01T00:18:21.514Z,2.58
2023-06-01T00:20:49.913Z,1.98
2023-06-01T00:23:21.216Z,2.83
2023-06-01T00:25:49.911Z,5.35
2023-06-01T00:28:18.380Z,3.30
2023-06-01T00:30:48.171Z,1.90
2023-06-01T00:33:16.967Z,3.33
2023-06-01T00:35:45.437Z,3.25
2023-06-01T00:38:14.026Z,3.65
2023-06-01T00:40:44.321Z,3.88
2023-06-01T00:43:12.874Z,2.63
2023-06-01T00:45:41.360Z,2.83
2023-06-01T00:48:11.928Z,2.30
2023-06-01T00:50:41.142Z,3.15
2023-06-01T00:53:18.794Z,3.63
2023-06-01T00:55:48.752Z,3.22
2023-06-01T00:58:17.543Z,3.00
2023-06-01T01:00:49.246Z,3.17
2023-06-01T01:03:22.600Z,2.85
2023-06-01T01:05:52.208Z,2.65
2023-06-01T01:08:29.878Z,2.72
2023-06-01T01:11:06.263Z,3.65
2023-06-01T01:13:43.144Z,3.42
2023-06-01T01:16:20.057Z,2.40
2023-06-01T01:18:57.160Z,2.95
2023-06-01T01:21:32.026Z,2.55
2023-06-01T01:24:35.713Z,1.92
2023-06-01T01:27:16.884Z,3.15
2023-06-01T01:29:48.468Z,3.08
2023-06-01T01:32:17.758Z,2.65
2023-06-01T01:34:47.343Z,2.83
2023-06-01T01:37:15.926Z,3.55
2023-06-01T01:39:44.502Z,2.33
2023-06-01T01:42:14.293Z,2.75
2023-06-01T01:44:42.951Z,3.03
2023-06-01T01:47:22.318Z,3.22
2023-06-01T01:49:55.874Z,2.63
2023-06-01T01:52:28.631Z,2.55
2023-06-01T01:54:58.278Z,2.83
2023-06-01T01:57:28.103Z,4.30
2023-06-01T01:59:58.171Z,2.15
2023-06-01T02:02:28.207Z,2.97
2023-06-01T02:04:57.654Z,3.60
2023-06-01T02:07:26.331Z,4.10
2023-06-01T02:09:54.819Z,2.03
2023-06-01T02:12:23.362Z,3.75
2023-06-01T02:14:52.185Z,2.58
2023-06-01T02:17:22.726Z,2.70
2023-06-01T02:19:52.827Z,2.97
2023-06-01T02:22:21.505Z,4.35
2023-06-01T02:24:49.978Z,2.42
2023-06-01T02:27:18.587Z,2.65
2023-06-01T02:29:47.165Z,2.65
2023-06-01T02:32:15.743Z,2.33
2023-06-01T02:34:44.242Z,2.17
2023-06-01T02:37:14.128Z,3.08
2023-06-01T02:39:42.648Z,3.15
2023-06-01T02:42:11.589Z,1.98
2023-06-01T02:44:40.090Z,2.50
2023-06-01T02:47:09.387Z,2.83
2023-06-01T02:49:39.844Z,2.65
2023-06-01T02:52:08.716Z,2.78
2023-06-01T02:54:38.534Z,2.03
2023-06-01T02:57:23.640Z,3.53
2023-06-01T02:59:57.296Z,2.67
2023-06-01T03:02:27.248Z,4.10
2023-06-01T03:04:55.831Z,3.15
2023-06-01T03:07:24.375Z,2.42
2023-06-01T03:09:57.260Z,2.70
2023-06-01T03:12:55.864Z,4.15
2023-06-01T03:15:24.622Z,2.13
2023-06-01T03:17:53.129Z,2.58
2023-06-01T03:20:21.715Z,3.00
2023-06-01T03:22:50.181Z,2.83
2023-06-01T03:25:20.936Z,3.45
2023-06-01T03:27:49.396Z,2.78
2023-06-01T03:30:17.888Z,2.40
2023-06-01T03:32:47.276Z,1.77
2023-06-01T03:35:17.383Z,2.50
2023-06-01T03:37:47.671Z,2.85
2023-06-01T03:40:20.948Z,3.30
2023-06-01T03:42:50.748Z,2.97
2023-06-01T03:45:19.268Z,2.00
2023-06-01T03:47:49.103Z,3.13
2023-06-01T03:50:17.832Z,3.03
2023-06-01T03:52:46.876Z,3.00
2023-06-01T03:55:16.390Z,3.22
2023-06-01T03:58:15.337Z,2.53
2023-06-01T04:00:44.982Z,3.13
2023-06-01T04:03:16.215Z,3.20
2023-06-01T04:05:49.422Z,2.80
2023-06-01T04:08:18.320Z,2.80
2023-06-01T04:10:46.860Z,2.95
2023-06-01T04:13:16.966Z,2.75
2023-06-01T04:15:46.845Z,3.70
2023-06-01T04:18:16.720Z,2.65
2023-06-01T04:21:06.800Z,3.05
2023-06-01T04:23:35.837Z,2.20
2023-06-01T04:26:04.831Z,2.53
2023-06-01T04:28:35.028Z,2.35
2023-06-01T04:31:04.123Z,2.78
2023-06-01T04:33:32.877Z,2.20
2023-06-01T04:36:02.001Z,4.00
2023-06-01T04:38:33.303Z,2.22
2023-06-01T04:41:02.215Z,3.63
2023-06-01T04:43:30.834Z,2.35
2023-06-01T04:46:04.736Z,2.22
2023-06-01T04:48:33.771Z,3.47
2023-06-01T04:51:05.158Z,3.92
2023-06-01T04:53:34.360Z,3.17
2023-06-01T04:56:02.931Z,2.65
2023-06-01T04:58:31.516Z,3.75
2023-06-01T05:01:01.694Z,3.08
2023-06-01T05:03:30.503Z,2.72
2023-06-01T05:05:59.187Z,3.78
2023-06-01T05:08:27.792Z,4.28
2023-06-01T05:10:56.369Z,4.20
2023-06-01T05:13:24.920Z,3.72
2023-06-01T05:15:53.612Z,7.93
2023-06-01T05:18:23.545Z,5.32
2023-06-01T05:20:52.546Z,4.97
2023-06-01T05:23:21.220Z,4.97
2023-06-01T05:25:49.728Z,4.55
2023-06-01T05:28:18.506Z,4.20
2023-06-01T05:30:47.199Z,4.80
2023-06-01T05:33:15.954Z,4.55
2023-06-01T05:35:45.889Z,3.92
2023-06-01T05:38:18.830Z,4.43
2023-06-01T05:40:47.561Z,3.38
2023-06-01T05:43:16.848Z,4.03
2023-06-01T05:45:45.498Z,4.82
2023-06-01T05:48:15.598Z,3.65
2023-06-01T05:50:49.194Z,4.25
2023-06-01T05:53:17.802Z,5.22
2023-06-01T05:55:46.488Z,3.92
2023-06-01T05:58:15.708Z,5.47
2023-06-01T06:00:44.208Z,5.72
2023-06-01T06:03:12.791Z,4.38
2023-06-01T06:05:41.392Z,4.00
2023-06-01T06:08:11.672Z,4.22
2023-06-01T06:10:40.154Z,3.58
2023-06-01T06:13:08.714Z,4.13
2023-06-01T06:15:37.270Z,5.65
2023-06-01T06:18:06.813Z,7.40
2023-06-01T06:20:35.478Z,7.60
2023-06-01T06:23:04.150Z,8.40
2023-06-01T06:25:33.960Z,7.72
2023-06-01T06:28:04.294Z,8.52
2023-06-01T06:30:32.908Z,7.00
2023-06-01T06:33:01.483Z,8.80
2023-06-01T06:35:30.119Z,8.15
2023-06-01T06:37:58.625Z,9.95
2023-06-01T06:40:27.173Z,9.38
2023-06-01T06:42:57.031Z,7.97
2023-06-01T06:45:25.569Z,7.10
2023-06-01T06:47:54.107Z,9.00
2023-06-01T06:50:22.583Z,11.98
2023-06-01T06:52:51.138Z,7.88
2023-06-01T06:55:19.733Z,8.65
2023-06-01T06:57:48.301Z,6.80
2023-06-01T07:00:19.892Z,9.40
2023-06-01T07:02:48.683Z,10.70
2023-06-01T07:05:17.392Z,8.30
2023-06-01T07:07:46.106Z,13.95
2023-06-01T07:10:14.959Z,11.35
2023-06-01T07:12:43.468Z,7.53
2023-06-01T07:15:12.448Z,7.55
2023-06-01T07:17:42.323Z,6.43
2023-06-01T07:20:12.204Z,8.02
2023-06-01T07:22:41.270Z,6.53
2023-06-01T07:25:11.618Z,8.63
2023-06-01T07:27:44.129Z,9.23
2023-06-01T07:30:13.719Z,7.70
2023-06-01T07:32:44.341Z,9.38
2023-06-01T07:35:13.298Z,8.80
2023-06-01T07:37:42.431Z,6.60
2023-06-01T07:40:12.806Z,10.55
2023-06-01T07:42:41.343Z,8.55
2023-06-01T07:45:10.622Z,8.43
2023-06-01T07:47:39.162Z,7.03
2023-06-01T07:50:10.560Z,6.20
2023-06-01T07:52:39.355Z,7.93
2023-06-01T07:55:10.152Z,7.82
2023-06-01T07:57:38.791Z,9.73
2023-06-01T08:00:09.106Z,7.25
2023-06-01T08:02:38.645Z,11.82
2023-06-01T08:05:10.968Z,6.93
2023-06-01T08:07:40.579Z,10.65
2023-06-01T08:10:09.825Z,7.32
2023-06-01T08:12:38.439Z,12.70
2023-06-01T08:15:08.122Z,7.57
2023-06-01T08:17:36.848Z,8.90
2023-06-01T08:20:11.778Z,10.80
2023-06-01T08:22:42.546Z,7.43
2023-06-01T08:25:11.234Z,6.80
2023-06-01T08:27:39.744Z,9.75
2023-06-01T08:30:09.433Z,7.68
2023-06-01T08:32:38.015Z,9.02
2023-06-01T08:35:08.585Z,7.00
2023-06-01T08:37:37.888Z,7.30
2023-06-01T08:40:11.511Z,8.20
2023-06-01T08:42:47.105Z,7.80
2023-06-01T08:45:15.708Z,6.00
2023-06-01T08:47:44.642Z,5.28
2023-06-01T08:50:13.415Z,7.65
2023-06-01T08:52:45.454Z,8.52
2023-06-01T08:55:16.199Z,10.13
2023-06-01T08:57:44.729Z,7.72
2023-06-01T09:00:16.569Z,7.10
2023-06-01T09:02:45.786Z,8.05
2023-06-01T09:05:15.083Z,7.97
2023-06-01T09:07:43.635Z,12.82
2023-06-01T09:10:12.709Z,12.02
2023-06-01T09:12:53.552Z,8.27
2023-06-01T09:15:22.913Z,8.90
2023-06-01T09:17:54.133Z,9.30
2023-06-01T09:20:26.846Z,7.30
2023-06-01T09:22:56.406Z,8.38
2023-06-01T09:25:29.712Z,6.47
2023-06-01T09:28:01.466Z,9.95
2023-06-01T09:30:40.697Z,9.43
2023-06-01T09:33:14.032Z,10.23
2023-06-01T09:35:45.076Z,7.03
2023-06-01T09:38:21.843Z,6.63
2023-06-01T09:40:58.604Z,9.20
2023-06-01T09:43:29.013Z,5.70
2023-06-01T09:46:08.370Z,7.05
2023-06-01T09:48:37.865Z,6.20
2023-06-01T09:51:07.220Z,5.22
2023-06-01T09:53:45.536Z,6.93
2023-06-01T09:56:14.065Z,6.00
2023-06-01T09:58:44.847Z,5.05
2023-06-01T10:01:16.887Z,5.85
2023-06-01T10:03:46.738Z,5.18
2023-06-01T10:06:16.926Z,5.63
2023-06-01T10:08:46.186Z,7.13
2023-06-01T10:11:14.721Z,5.78
2023-06-01T10:13:44.702Z,6.25
2023-06-01T10:16:14.484Z,7.25
2023-06-01T10:18:43.935Z,7.95
2023-06-01T10:21:12.620Z,5.93
2023-06-01T10:23:43.036Z,5.95
2023-06-01T10:26:16.287Z,5.95
2023-06-01T10:28:48.334Z,6.22
2023-06-01T10:31:40.149Z,4.82
2023-06-01T10:34:11.585Z,5.93
2023-06-01T10:37:12.174Z,7.50
2023-06-01T10:39:41.233Z,6.25
2023-06-01T10:42:39.033Z,6.35
2023-06-01T10:45:30.717Z,6.32
2023-06-01T10:47:59.274Z,5.93
2023-06-01T10:50:28.075Z,7.05
2023-06-01T10:52:57.764Z,6.65
2023-06-01T10:55:27.944Z,6.72
2023-06-01T10:58:22.297Z,6.57
2023-06-01T11:00:53.392Z,5.72
2023-06-01T11:03:46.667Z,6.55
2023-06-01T11:06:27.665Z,5.20
2023-06-01T11:09:00.810Z,5.80
2023-06-01T11:12:01.359Z,5.53
2023-06-01T11:14:32.455Z,6.07
2023-06-01T11:17:30.890Z,5.50
2023-06-01T11:20:12.389Z,5.85
2023-06-01T11:22:41.108Z,5.03
2023-06-01T11:25:12.332Z,5.90
2023-06-01T11:27:45.796Z,5.10
2023-06-01T11:30:20.894Z,4.55
2023-06-01T11:32:53.884Z,4.93
2023-06-01T11:35:23.961Z,7.10
2023-06-01T11:37:56.854Z,7.57
2023-06-01T11:40:29.074Z,9.68
2023-06-01T11:42:59.240Z,7.60
2023-06-01T11:45:29.522Z,9.35
2023-06-01T11:47:59.436Z,9.25
2023-06-01T11:50:30.205Z,5.65
2023-06-01T11:52:59.003Z,5.60
2023-06-01T11:55:27.604Z,7.97
2023-06-01T11:57:56.202Z,6.70
2023-06-01T12:00:25.438Z,10.18
2023-06-01T12:03:09.492Z,10.02
2023-06-01T12:05:45.063Z,7.85
2023-06-01T12:08:17.137Z,6.18
2023-06-01T12:10:47.874Z,6.82
2023-06-01T12:13:17.195Z,6.20
2023-06-01T12:15:46.068Z,5.78
2023-06-01T12:18:16.225Z,6.18
2023-06-01T12:20:46.316Z,7.13
2023-06-01T12:23:17.297Z,6.65
2023-06-01T12:25:52.846Z,9.48
2023-06-01T12:28:22.844Z,9.18
2023-06-01T12:30:51.746Z,8.50
2023-06-01T12:33:33.700Z,7.63
2023-06-01T12:36:02.546Z,9.55
2023-06-01T12:38:37.319Z,10.52
2023-06-01T12:41:09.746Z,10.52
2023-06-01T12:43:38.719Z,7.45
2023-06-01T12:46:07.681Z,7.78
2023-06-01T12:48:38.767Z,6.78
2023-06-01T12:51:09.224Z,5.75
2023-06-01T12:53:38.268Z,5.85
2023-06-01T12:56:08.591Z,6.18
2023-06-01T12:58:37.693Z,6.95
2023-06-01T13:01:09.207Z,7.10
2023-06-01T13:03:39.189Z,7.47
2023-06-01T13:06:08.152Z,7.68
2023-06-01T13:08:37.831Z,6.97
2023-06-01T13:11:06.957Z,7.07
2023-06-01T13:13:35.721Z,6.75
2023-06-01T13:16:04.662Z,6.13
2023-06-01T13:18:33.441Z,6.88
2023-06-01T13:21:03.716Z,7.32
2023-06-01T13:23:32.778Z,7.47
2023-06-01T13:26:01.443Z,6.07
2023-06-01T13:28:30.067Z,8.98
2023-06-01T13:30:58.398Z,8.77
2023-06-01T13:33:26.923Z,7.80
2023-06-01T13:35:55.526Z,7.10
2023-06-01T13:38:25.336Z,7.00
2023-06-01T13:40:53.871Z,6.40
2023-06-01T13:43:22.511Z,10.32
2023-06-01T13:45:51.035Z,13.25
2023-06-01T13:48:20.803Z,16.80
2023-06-01T13:50:49.755Z,18.23
2023-06-01T13:53:18.192Z,41.65
2023-06-01T13:55:48.184Z,34.65
2023-06-01T13:58:16.929Z,48.05
2023-06-01T14:00:45.550Z,45.75
2023-06-01T14:03:14.176Z,84.50
2023-06-01T14:06:16.583Z,117.22
2023-06-01T14:08:31.362Z,113.68
2023-06-01T14:11:01.382Z,83.88
2023-06-01T14:13:29.944Z,107.40
2023-06-01T14:15:58.615Z,121.78
2023-06-01T14:18:28.302Z,122.53
2023-06-01T14:20:57.080Z,112.88
2023-06-01T14:23:25.631Z,117.82
2023-06-01T14:25:56.103Z,83.15
2023-06-01T14:28:26.072Z,56.90
2023-06-01T14:30:54.679Z,61.90
2023-06-01T14:33:23.195Z,86.43
2023-06-01T14:35:51.864Z,92.10
2023-06-01T14:38:20.471Z,70.47
2023-06-01T14:40:49.514Z,12.77
2023-06-01T14:43:18.059Z,31.80
2023-06-01T14:45:48.056Z,18.20
2023-06-01T14:48:16.819Z,21.90
2023-06-01T14:50:45.536Z,24.10
2023-06-01T14:53:14.060Z,22.10
2023-06-01T14:55:42.911Z,17.42
2023-06-01T14:58:12.102Z,19.05
2023-06-01T15:00:40.663Z,19.27
2023-06-01T15:03:11.227Z,15.05
2023-06-01T15:05:39.845Z,19.88
2023-06-01T15:08:08.433Z,14.73
2023-06-01T15:10:37.053Z,14.35
2023-06-01T15:13:05.570Z,20.20
2023-06-01T15:15:34.121Z,15.52
2023-06-01T15:18:02.640Z,18.40
2023-06-01T15:20:32.783Z,9.25
2023-06-01T15:23:01.465Z,14.48
2023-06-01T15:25:29.915Z,15.45
2023-06-01T15:27:58.454Z,11.00
2023-06-01T15:30:29.890Z,13.90
2023-06-01T15:33:08.169Z,11.15
2023-06-01T15:35:39.142Z,11.38
2023-06-01T15:38:07.644Z,7.95
2023-06-01T15:40:36.303Z,9.98
2023-06-01T15:43:04.896Z,11.10
2023-06-01T15:45:33.461Z,12.55
2023-06-01T15:48:02.070Z,14.45
2023-06-01T15:50:30.798Z,11.82
2023-06-01T15:53:00.632Z,17.00
2023-06-01T15:55:29.183Z,10.18
2023-06-01T15:57:57.678Z,15.60
2023-06-01T16:00:28.506Z,14.05
2023-06-01T16:02:57.092Z,12.68
2023-06-01T16:05:25.829Z,12.63
2023-06-01T16:07:54.417Z,11.63
2023-06-01T16:10:24.645Z,10.98
2023-06-01T16:12:53.154Z,12.30
2023-06-01T16:15:21.717Z,9.60
2023-06-01T16:17:50.295Z,13.32
2023-06-01T16:20:18.964Z,11.75
2023-06-01T16:22:47.497Z,12.23
2023-06-01T16:25:16.013Z,14.20
2023-06-01T16:27:45.903Z,11.40
2023-06-01T16:30:14.531Z,13.13
2023-06-01T16:32:43.032Z,11.52
2023-06-01T16:35:11.748Z,11.98
2023-06-01T16:37:40.607Z,16.92
2023-06-01T16:40:09.440Z,13.70
2023-06-01T16:42:37.989Z,12.93
2023-06-01T16:45:09.034Z,14.73
2023-06-01T16:47:37.764Z,13.85
2023-06-01T16:50:07.000Z,13.05
2023-06-01T16:52:35.529Z,13.05
2023-06-01T16:55:04.329Z,13.32
2023-06-01T17:00:11.988Z,9.77
2023-06-01T17:02:40.831Z,14.07
2023-06-01T17:05:10.308Z,17.40
2023-06-01T17:07:39.058Z,12.57
2023-06-01T17:10:08.491Z,17.73
2023-06-01T17:12:37.100Z,23.13
2023-06-01T17:15:06.672Z,11.25
2023-06-01T17:17:36.954Z,11.75
2023-06-01T17:20:06.686Z,10.43
2023-06-01T17:22:35.245Z,14.20
2023-06-01T17:25:04.374Z,8.80
2023-06-01T17:27:33.075Z,10.02
2023-06-01T17:30:01.664Z,10.88
2023-06-01T17:32:30.667Z,8.07
2023-06-01T17:35:00.509Z,11.60
2023-06-01T17:37:28.912Z,8.43
2023-06-01T17:39:57.462Z,8.13
2023-06-01T17:42:25.930Z,5.88
2023-06-01T17:44:54.403Z,7.93
2023-06-01T17:47:23.038Z,10.23
2023-06-01T17:49:51.705Z,10.98
2023-06-01T17:52:21.912Z,8.18
2023-06-01T17:54:50.504Z,11.23
2023-06-01T17:57:19.019Z,9.38
2023-06-01T17:59:49.749Z,8.05
2023-06-01T18:02:18.246Z,6.32
2023-06-01T18:04:47.966Z,9.40
2023-06-01T18:07:17.904Z,6.53
2023-06-01T18:09:49.375Z,8.45
2023-06-01T18:12:17.856Z,16.90
2023-06-01T18:14:47.582Z,13.57
2023-06-01T18:17:16.506Z,9.38
2023-06-01T18:19:45.004Z,12.20
2023-06-01T18:22:13.546Z,10.45
2023-06-01T18:24:43.592Z,14.90
2023-06-01T18:27:13.420Z,13.30
2023-06-01T18:29:41.869Z,7.00
2023-06-01T18:32:10.420Z,9.02
2023-06-01T18:34:39.130Z,12.95
2023-06-01T18:37:08.491Z,9.45
2023-06-01T18:39:37.029Z,12.52
2023-06-01T18:42:06.294Z,10.43
2023-06-01T18:44:36.122Z,4.75
2023-06-01T18:47:04.899Z,9.43
2023-06-01T18:49:34.754Z,8.07
2023-06-01T18:52:03.287Z,7.60
2023-06-01T18:54:33.508Z,6.65
2023-06-01T18:57:02.509Z,8.35
2023-06-01T18:59:31.222Z,6.13
2023-06-01T19:02:01.106Z,7.65
2023-06-01T19:04:29.630Z,12.13
2023-06-01T19:06:58.196Z,7.50
2023-06-01T19:09:26.840Z,5.45
2023-06-01T19:11:55.308Z,10.07
2023-06-01T19:14:23.907Z,12.23
2023-06-01T19:16:52.439Z,5.43
2023-06-01T19:19:26.090Z,6.50
2023-06-01T19:21:54.641Z,6.72
2023-06-01T19:24:28.814Z,6.22
2023-06-01T19:26:59.533Z,5.07
2023-06-01T19:29:27.945Z,7.45
2023-06-01T19:31:56.527Z,5.90
2023-06-01T19:34:27.024Z,9.18
2023-06-01T19:36:58.975Z,6.78
2023-06-01T19:39:39.394Z,6.35
2023-06-01T19:42:41.199Z,7.00
2023-06-01T19:45:10.518Z,4.85
2023-06-01T19:47:47.432Z,8.00
2023-06-01T19:50:50.403Z,6.63
2023-06-01T19:53:19.038Z,5.82
2023-06-01T19:55:47.973Z,5.80
2023-06-01T19:58:16.458Z,5.15
2023-06-01T20:00:50.164Z,6.03
2023-06-01T20:03:18.753Z,4.90
2023-06-01T20:05:52.199Z,7.32
2023-06-01T20:08:20.704Z,5.47
2023-06-01T20:10:49.208Z,9.82
2023-06-01T20:13:18.457Z,6.68
2023-06-01T20:15:46.932Z,5.90
2023-06-01T20:18:15.671Z,5.13
2023-06-01T20:20:46.280Z,7.90
2023-06-01T20:23:18.176Z,4.55
2023-06-01T20:25:48.322Z,4.85
2023-06-01T20:28:17.148Z,7.32
2023-06-01T20:31:05.860Z,3.95
2023-06-01T20:33:35.081Z,4.88
2023-06-01T20:36:06.291Z,5.85
2023-06-01T20:38:40.296Z,5.50
2023-06-01T20:41:17.101Z,5.38
2023-06-01T20:43:45.587Z,4.18
2023-06-01T20:46:21.210Z,3.15
2023-06-01T20:48:51.423Z,5.25
2023-06-01T20:51:23.424Z,4.95
2023-06-01T20:53:55.472Z,5.88
2023-06-01T20:56:31.063Z,4.65
2023-06-01T20:59:04.938Z,4.05
2023-06-01T21:01:35.883Z,4.35
2023-06-01T21:04:05.681Z,5.18
2023-06-01T21:06:34.473Z,4.93
2023-06-01T21:09:05.086Z,4.57
2023-06-01T21:11:33.620Z,3.35
2023-06-01T21:14:02.220Z,3.55
2023-06-01T21:16:31.045Z,6.13
2023-06-01T21:18:59.646Z,6.65
2023-06-01T21:21:28.389Z,3.08
2023-06-01T21:23:57.050Z,3.15
2023-06-01T21:26:27.769Z,4.30
2023-06-01T21:28:56.428Z,4.45
2023-06-01T21:31:25.034Z,3.50
2023-06-01T21:33:53.659Z,2.75
2023-06-01T21:36:22.284Z,2.80
2023-06-01T21:38:50.915Z,2.75
2023-06-01T21:41:19.851Z,4.53
2023-06-01T21:43:49.819Z,4.25
2023-06-01T21:46:18.767Z,4.55
2023-06-01T21:48:47.597Z,4.78
2023-06-01T21:51:16.519Z,3.05
2023-06-01T21:53:45.405Z,3.50
2023-06-01T21:56:14.372Z,2.65
2023-06-01T21:58:43.897Z,3.00
2023-06-01T22:01:14.435Z,3.22
2023-06-01T22:03:43.237Z,3.97
2023-06-01T22:06:12.168Z,4.22
2023-06-01T22:08:40.858Z,3.65
2023-06-01T22:11:09.487Z,3.05
2023-06-01T22:13:38.100Z,3.17
2023-06-01T22:16:07.328Z,3.30
2023-06-01T22:18:37.376Z,3.00
2023-06-01T22:21:06.320Z,4.22
2023-06-01T22:23:34.964Z,2.78
2023-06-01T22:26:03.903Z,3.22
2023-06-01T22:28:32.509Z,4.70
2023-06-01T22:31:01.130Z,2.83
2023-06-01T22:33:29.736Z,3.22
2023-06-01T22:36:00.981Z,3.60
2023-06-01T22:38:29.800Z,3.53
2023-06-01T22:40:58.362Z,3.53
2023-06-01T22:43:26.949Z,4.22
2023-06-01T22:45:55.604Z,2.75
2023-06-01T22:48:24.394Z,4.93
2023-06-01T22:50:54.094Z,6.03
2023-06-01T22:53:25.925Z,7.68
2023-06-01T22:55:54.589Z,4.63
2023-06-01T22:58:23.194Z,8.20
2023-06-01T23:00:52.331Z,12.80
2023-06-01T23:03:21.139Z,10.75
2023-06-01T23:05:50.881Z,8.82
2023-06-01T23:08:22.124Z,8.20
2023-06-01T23:10:52.158Z,8.52
2023-06-01T23:13:24.199Z,8.73
2023-06-01T23:15:55.533Z,7.22
2023-06-01T23:18:24.433Z,8.80
2023-06-01T23:20:54.044Z,10.85
2023-06-01T23:23:23.467Z,9.48
2023-06-01T23:25:55.487Z,7.70
2023-06-01T23:28:24.098Z,8.35
2023-06-01T23:30:52.993Z,8.13
2023-06-01T23:33:21.631Z,10.02
2023-06-01T23:35:50.261Z,6.70
2023-06-01T23:38:20.073Z,10.95
2023-06-01T23:40:49.031Z,5.38
2023-06-01T23:43:19.070Z,7.40
2023-06-01T23:45:47.768Z,7.60
2023-06-01T23:48:16.635Z,7.88
2023-06-01T23:50:45.728Z,13.23
2023-06-01T23:53:14.484Z,4.93
2023-06-01T23:55:43.122Z,11.90
2023-06-01T23:58:11.757Z,12.10
